createdAt,value
2018-12-29T00:00:03.753Z,35.60
2018-12-29T00:01:03.739Z,37.60
2018-12-29T00:02:03.728Z,38.50
2018-12-29T00:03:03.717Z,37.40
2018-12-29T00:04:03.716Z,35.80
2018-12-29T00:05:03.698Z,36.10
2018-12-29T00:06:03.689Z,32.70
2018-12-29T00:07:03.678Z,35.30
2018-12-29T00:08:03.664Z,35.50
2018-12-29T00:09:03.660Z,34.40
2018-12-29T00:10:03.648Z,33.80
2018-12-29T00:11:03.632Z,32.90
2018-12-29T00:12:03.621Z,31.50
2018-12-29T00:13:03.610Z,33.80
2018-12-29T00:14:03.633Z,31.20
2018-12-29T00:15:03.591Z,33.20
2018-12-29T00:16:03.578Z,33.40
2018-12-29T00:17:03.568Z,37.50
2018-12-29T00:18:03.557Z,34.40
2018-12-29T00:19:03.545Z,34.80
2018-12-29T00:20:03.552Z,36.40
2018-12-29T00:21:03.525Z,38.20
2018-12-29T00:22:03.514Z,38.60
2018-12-29T00:23:03.503Z,36.00
2018-12-29T00:24:03.492Z,34.70
2018-12-29T00:25:03.489Z,34.60
2018-12-29T00:26:03.471Z,35.60
2018-12-29T00:27:03.459Z,37.50
2018-12-29T00:28:03.449Z,35.30
2018-12-29T00:29:03.439Z,37.00
2018-12-29T00:30:03.437Z,37.10
2018-12-29T00:31:03.419Z,36.60
2018-12-29T00:32:03.407Z,41.40
2018-12-29T00:33:03.396Z,37.90
2018-12-29T00:34:03.386Z,36.80
2018-12-29T00:35:03.384Z,37.60
2018-12-29T00:36:03.365Z,38.50
2018-12-29T00:37:03.353Z,40.40
2018-12-29T00:38:03.344Z,40.90
2018-12-29T00:39:03.337Z,36.20
2018-12-29T00:40:03.332Z,40.10
2018-12-29T00:41:03.311Z,38.50
2018-12-29T00:42:03.300Z,38.20
2018-12-29T00:43:03.290Z,40.30
2018-12-29T00:44:03.279Z,36.70
2018-12-29T00:45:03.300Z,34.20
2018-12-29T00:46:03.258Z,35.30
2018-12-29T00:47:03.248Z,38.00
2018-12-29T00:48:03.236Z,36.40
2018-12-29T00:49:03.227Z,37.40
2018-12-29T00:50:03.218Z,39.50
2018-12-29T00:51:03.213Z,41.90
2018-12-29T00:52:03.196Z,40.20
2018-12-29T00:53:03.183Z,40.80
2018-12-29T00:54:03.173Z,39.70
2018-12-29T00:55:03.168Z,38.90
2018-12-29T00:56:03.163Z,43.30
2018-12-29T00:57:03.141Z,40.60
2018-12-29T00:58:03.128Z,42.10
2018-12-29T00:59:03.122Z,41.00
2018-12-29T01:00:03.109Z,39.10
2018-12-29T01:01:03.106Z,45.80
2018-12-29T01:02:03.086Z,38.40
2018-12-29T01:03:03.076Z,38.50
2018-12-29T01:04:03.068Z,38.40
2018-12-29T01:05:03.055Z,41.10
2018-12-29T01:06:03.053Z,41.10
2018-12-29T01:07:03.033Z,44.30
2018-12-29T01:08:03.023Z,44.20
2018-12-29T01:09:03.014Z,42.30
2018-12-29T01:10:03.003Z,40.30
2018-12-29T01:11:03.026Z,40.00
2018-12-29T01:12:02.980Z,44.80
2018-12-29T01:13:02.968Z,40.90
2018-12-29T01:14:02.964Z,44.50
2018-12-29T01:15:09.705Z,43.10
2018-12-29T01:16:03.971Z,39.50
2018-12-29T01:17:02.926Z,42.80
2018-12-29T01:18:02.917Z,41.50
2018-12-29T01:19:02.905Z,39.90
2018-12-29T01:20:02.900Z,42.60
2018-12-29T01:21:02.884Z,44.00
2018-12-29T01:22:02.883Z,40.30
2018-12-29T01:23:02.865Z,39.60
2018-12-29T01:24:02.852Z,41.50
2018-12-29T01:25:02.844Z,44.20
2018-12-29T01:26:02.831Z,46.00
2018-12-29T01:27:02.830Z,44.60
2018-12-29T01:28:02.809Z,45.30
2018-12-29T01:29:02.798Z,39.90
2018-12-29T01:30:02.792Z,43.30
2018-12-29T01:31:02.777Z,43.00
2018-12-29T01:32:02.777Z,46.10
2018-12-29T01:33:02.757Z,50.80
2018-12-29T01:34:02.744Z,46.30
2018-12-29T01:35:02.733Z,45.40
2018-12-29T01:36:02.723Z,42.80
2018-12-29T01:37:02.721Z,45.00
2018-12-29T01:38:02.702Z,50.00
2018-12-29T01:39:02.693Z,44.00
2018-12-29T01:40:02.681Z,46.60
2018-12-29T01:41:02.669Z,47.50
2018-12-29T01:42:02.667Z,44.40
2018-12-29T01:43:02.651Z,41.30
2018-12-29T01:44:02.638Z,44.30
2018-12-29T01:45:02.628Z,49.10
2018-12-29T01:46:02.617Z,46.60
2018-12-29T01:47:02.621Z,48.70
2018-12-29T01:48:02.595Z,52.70
2018-12-29T01:49:02.587Z,52.60
2018-12-29T01:50:02.573Z,51.20
2018-12-29T01:51:02.565Z,49.40
2018-12-29T01:52:02.587Z,47.10
2018-12-29T01:53:02.542Z,46.10
2018-12-29T01:54:02.531Z,50.50
2018-12-29T01:55:02.524Z,51.00
2018-12-29T01:56:02.513Z,46.40
2018-12-29T01:57:02.499Z,56.60
2018-12-29T01:58:02.497Z,46.00
2018-12-29T01:59:02.478Z,43.50
2018-12-29T02:00:02.470Z,46.70
2018-12-29T02:01:02.467Z,45.60
2018-12-29T02:02:02.446Z,42.20
2018-12-29T02:03:02.443Z,45.00
2018-12-29T02:04:02.425Z,42.50
2018-12-29T02:05:02.417Z,42.10
2018-12-29T02:06:02.403Z,41.70
2018-12-29T02:07:02.396Z,43.60
2018-12-29T02:08:02.393Z,47.60
2018-12-29T02:09:02.371Z,43.00
2018-12-29T02:10:02.360Z,42.60
2018-12-29T02:11:02.350Z,43.30
2018-12-29T02:12:02.338Z,44.50
2018-12-29T02:13:02.361Z,48.10
2018-12-29T02:14:02.317Z,44.50
2018-12-29T02:15:02.306Z,45.40
2018-12-29T02:16:02.296Z,46.10
2018-12-29T02:17:02.285Z,48.10
2018-12-29T02:18:02.275Z,41.50
2018-12-29T02:19:02.280Z,43.40
2018-12-29T02:20:02.254Z,47.10
2018-12-29T02:21:02.241Z,43.70
2018-12-29T02:22:02.232Z,45.90
2018-12-29T02:23:02.221Z,50.20
2018-12-29T02:24:02.221Z,48.90
2018-12-29T02:25:02.199Z,52.40
2018-12-29T02:26:02.191Z,51.80
2018-12-29T02:27:02.178Z,48.10
2018-12-29T02:28:02.172Z,52.70
2018-12-29T02:29:02.165Z,51.40
2018-12-29T02:30:02.151Z,52.10
2018-12-29T02:31:02.140Z,53.00
2018-12-29T02:32:02.132Z,50.90
2018-12-29T02:33:02.113Z,48.70
2018-12-29T02:34:02.114Z,54.00
2018-12-29T02:35:02.104Z,55.80
2018-12-29T02:36:02.083Z,61.00
2018-12-29T02:37:02.071Z,55.30
2018-12-29T02:38:02.061Z,61.60
2018-12-29T02:39:02.064Z,58.50
2018-12-29T02:40:02.045Z,60.90
2018-12-29T02:41:02.031Z,64.20
2018-12-29T02:42:02.019Z,63.10
2018-12-29T02:43:02.006Z,70.60
2018-12-29T02:44:02.006Z,67.10
2018-12-29T02:45:01.988Z,60.20
2018-12-29T02:46:02.034Z,67.30
2018-12-29T02:47:01.963Z,64.10
2018-12-29T02:48:01.957Z,63.20
2018-12-29T02:49:01.952Z,57.50
2018-12-29T02:50:01.935Z,57.10
2018-12-29T02:51:01.921Z,68.80
2018-12-29T02:52:01.911Z,57.30
2018-12-29T02:53:01.903Z,64.50
2018-12-29T02:54:01.899Z,62.90
2018-12-29T02:55:01.879Z,65.70
2018-12-29T02:56:01.867Z,61.30
2018-12-29T02:57:01.859Z,63.80
2018-12-29T02:58:01.847Z,60.50
2018-12-29T02:59:01.846Z,58.60
2018-12-29T03:00:01.826Z,61.70
2018-12-29T03:01:01.816Z,69.30
2018-12-29T03:02:01.805Z,64.10
2018-12-29T03:03:01.792Z,63.70
2018-12-29T03:04:01.942Z,63.30
2018-12-29T03:05:01.778Z,65.50
2018-12-29T03:06:01.762Z,69.20
2018-12-29T03:07:01.757Z,67.30
2018-12-29T03:08:01.741Z,70.30
2018-12-29T03:09:01.728Z,82.60
2018-12-29T03:10:01.734Z,67.60
2018-12-29T03:11:01.777Z,65.40
2018-12-29T03:12:01.701Z,61.10
2018-12-29T03:13:01.693Z,69.50
2018-12-29T03:14:01.675Z,68.30
2018-12-29T03:15:01.679Z,65.70
2018-12-29T03:16:01.653Z,62.80
2018-12-29T03:17:01.653Z,56.90
2018-12-29T03:18:04.200Z,62.60
2018-12-29T03:19:01.620Z,66.20
2018-12-29T03:20:01.623Z,61.70
2018-12-29T03:21:01.602Z,65.10
2018-12-29T03:22:01.590Z,67.00
2018-12-29T03:23:01.577Z,63.00
2018-12-29T03:24:01.568Z,65.20
2018-12-29T03:25:01.566Z,67.40
2018-12-29T03:26:01.547Z,62.20
2018-12-29T03:27:01.555Z,64.60
2018-12-29T03:28:01.524Z,53.40
2018-12-29T03:29:01.515Z,61.10
2018-12-29T03:30:01.510Z,62.50
2018-12-29T03:31:01.493Z,61.40
2018-12-29T03:32:01.493Z,69.20
2018-12-29T03:33:01.495Z,57.80
2018-12-29T03:34:01.471Z,61.00
2018-12-29T03:35:01.456Z,59.50
2018-12-29T03:36:01.439Z,63.80
2018-12-29T03:37:01.430Z,63.40
2018-12-29T03:38:01.418Z,70.60
2018-12-29T03:39:01.411Z,67.40
2018-12-29T03:40:01.430Z,57.10
2018-12-29T03:41:01.454Z,57.50
2018-12-29T03:42:01.373Z,64.40
2018-12-29T03:43:01.367Z,58.30
2018-12-29T03:44:01.358Z,63.00
2018-12-29T03:45:01.391Z,60.70
2018-12-29T03:46:01.344Z,57.60
2018-12-29T03:47:01.322Z,58.40
2018-12-29T03:48:01.310Z,58.70
2018-12-29T03:49:01.299Z,57.10
2018-12-29T03:50:01.287Z,56.00
2018-12-29T03:51:01.286Z,51.50
2018-12-29T03:52:01.268Z,54.00
2018-12-29T03:53:01.261Z,60.40
2018-12-29T03:54:01.250Z,53.90
2018-12-29T03:55:01.237Z,58.50
2018-12-29T03:56:01.232Z,57.80
2018-12-29T03:57:01.217Z,58.80
2018-12-29T03:58:01.202Z,59.40
2018-12-29T03:59:01.194Z,62.40
2018-12-29T04:00:01.181Z,57.20
2018-12-29T04:01:01.190Z,53.00
2018-12-29T04:02:01.160Z,56.60
2018-12-29T04:03:01.155Z,61.00
2018-12-29T04:04:01.140Z,77.60
2018-12-29T04:05:01.135Z,73.50
2018-12-29T04:06:01.125Z,67.80
2018-12-29T04:07:01.107Z,61.70
2018-12-29T04:08:01.097Z,57.00
2018-12-29T04:09:01.088Z,59.00
2018-12-29T04:10:01.083Z,53.90
2018-12-29T04:11:01.072Z,65.90
2018-12-29T04:12:01.057Z,61.90
2018-12-29T04:13:01.044Z,60.40
2018-12-29T04:14:01.034Z,68.70
2018-12-29T04:15:01.021Z,59.60
2018-12-29T04:16:01.313Z,57.90
2018-12-29T04:17:01.007Z,59.10
2018-12-29T04:18:00.992Z,59.70
2018-12-29T04:19:00.982Z,60.70
2018-12-29T04:20:00.968Z,66.50
2018-12-29T04:21:00.957Z,61.00
2018-12-29T04:22:00.955Z,64.00
2018-12-29T04:23:00.936Z,60.50
2018-12-29T04:24:00.924Z,63.50
2018-12-29T04:25:00.915Z,58.10
2018-12-29T04:26:00.904Z,69.40
2018-12-29T04:27:00.903Z,58.60
2018-12-29T04:28:00.882Z,57.80
2018-12-29T04:29:00.871Z,59.60
2018-12-29T04:30:00.860Z,53.20
2018-12-29T04:31:00.850Z,57.70
2018-12-29T04:32:00.850Z,59.50
2018-12-29T04:33:00.828Z,67.20
2018-12-29T04:34:00.818Z,60.10
2018-12-29T04:35:00.808Z,55.90
2018-12-29T04:36:00.796Z,59.80
2018-12-29T04:37:00.798Z,60.60
2018-12-29T04:38:00.778Z,60.20
2018-12-29T04:39:00.764Z,53.80
2018-12-29T04:40:00.757Z,54.10
2018-12-29T04:41:00.746Z,59.50
2018-12-29T04:42:00.743Z,56.30
2018-12-29T04:43:00.722Z,66.50
2018-12-29T04:44:00.714Z,59.00
2018-12-29T04:45:00.699Z,56.80
2018-12-29T04:46:05.282Z,60.80
2018-12-29T04:47:00.688Z,62.40
2018-12-29T04:48:00.668Z,58.80
2018-12-29T04:49:00.659Z,58.50
2018-12-29T04:50:00.653Z,66.60
2018-12-29T04:51:00.637Z,59.10
2018-12-29T04:52:00.660Z,63.90
2018-12-29T04:53:00.616Z,61.60
2018-12-29T04:54:00.609Z,62.10
2018-12-29T04:55:00.599Z,65.70
2018-12-29T04:56:00.583Z,61.10
2018-12-29T04:57:00.573Z,67.60
2018-12-29T04:58:00.572Z,65.40
2018-12-29T04:59:00.551Z,60.90
2018-12-29T05:00:00.546Z,58.80
2018-12-29T05:01:00.531Z,60.70
2018-12-29T05:02:00.524Z,65.90
2018-12-29T05:03:00.517Z,61.20
2018-12-29T05:04:00.497Z,63.00
2018-12-29T05:05:00.489Z,68.30
2018-12-29T05:06:00.476Z,62.70
2018-12-29T05:07:00.465Z,67.90
2018-12-29T05:08:00.467Z,66.80
2018-12-29T05:09:00.448Z,70.90
2018-12-29T05:10:00.432Z,64.10
2018-12-29T05:11:00.422Z,64.00
2018-12-29T05:12:00.411Z,61.30
2018-12-29T05:13:00.410Z,63.10
2018-12-29T05:14:00.390Z,68.00
2018-12-29T05:15:00.496Z,67.00
2018-12-29T05:16:00.369Z,68.20
2018-12-29T05:17:00.358Z,70.20
2018-12-29T05:18:00.356Z,69.60
2018-12-29T05:19:00.339Z,63.80
2018-12-29T05:20:00.326Z,63.50
2018-12-29T05:21:00.316Z,66.00
2018-12-29T05:22:00.305Z,67.80
2018-12-29T05:23:00.302Z,72.00
2018-12-29T05:24:00.285Z,58.80
2018-12-29T05:25:00.290Z,67.40
2018-12-29T05:26:00.261Z,64.20
2018-12-29T05:27:00.253Z,61.70
2018-12-29T05:28:00.248Z,64.90
2018-12-29T05:29:00.232Z,59.70
2018-12-29T05:30:00.218Z,62.90
2018-12-29T05:31:00.208Z,62.60
2018-12-29T05:32:00.197Z,60.80
2018-12-29T05:33:00.193Z,70.50
2018-12-29T05:34:00.175Z,61.40
2018-12-29T05:35:00.164Z,61.60
2018-12-29T05:36:00.153Z,61.00
2018-12-29T05:37:00.143Z,57.80
2018-12-29T05:38:00.164Z,61.50
2018-12-29T05:39:00.122Z,59.20
2018-12-29T05:40:00.169Z,53.10
2018-12-29T05:41:00.099Z,55.50
2018-12-29T05:42:00.090Z,58.40
2018-12-29T05:43:00.081Z,59.20
2018-12-29T05:44:00.076Z,58.20
2018-12-29T05:45:00.081Z,60.80
2018-12-29T05:46:00.046Z,57.50
2018-12-29T05:47:00.036Z,52.20
2018-12-29T05:48:00.034Z,51.80
2018-12-29T05:49:00.022Z,56.10
2018-12-29T05:50:00.002Z,58.70
2018-12-29T05:50:59.992Z,56.80
2018-12-29T05:51:59.982Z,60.70
2018-12-29T05:52:59.972Z,66.90
2018-12-29T05:53:59.969Z,56.30
2018-12-29T05:54:59.949Z,58.90
2018-12-29T05:55:59.938Z,56.50
2018-12-29T05:56:59.928Z,57.80
2018-12-29T05:57:59.919Z,60.60
2018-12-29T05:58:59.916Z,64.40
2018-12-29T05:59:59.896Z,62.10
2018-12-29T06:00:59.889Z,57.30
2018-12-29T06:01:59.876Z,57.10
2018-12-29T06:02:59.863Z,60.30
2018-12-29T06:03:59.877Z,56.20
2018-12-29T06:04:59.843Z,54.10
2018-12-29T06:05:59.831Z,54.20
2018-12-29T06:06:59.821Z,55.20
2018-12-29T06:07:59.817Z,55.50
2018-12-29T06:08:59.798Z,55.20
2018-12-29T06:09:59.797Z,58.80
2018-12-29T06:10:59.777Z,60.80
2018-12-29T06:11:59.766Z,61.50
2018-12-29T06:12:59.759Z,55.60
2018-12-29T06:13:59.745Z,54.80
2018-12-29T06:14:59.745Z,52.50
2018-12-29T06:15:59.723Z,55.60
2018-12-29T06:16:59.715Z,57.60
2018-12-29T06:17:59.707Z,55.10
2018-12-29T06:18:59.692Z,59.10
2018-12-29T06:19:59.689Z,60.50
2018-12-29T06:20:59.671Z,57.60
2018-12-29T06:21:59.660Z,64.30
2018-12-29T06:22:59.652Z,63.40
2018-12-29T06:23:59.638Z,65.90
2018-12-29T06:24:59.653Z,61.70
2018-12-29T06:25:59.617Z,62.00
2018-12-29T06:26:59.608Z,62.40
2018-12-29T06:27:59.597Z,59.90
2018-12-29T06:28:59.586Z,62.10
2018-12-29T06:29:59.574Z,61.30
2018-12-29T06:30:59.578Z,57.00
2018-12-29T06:31:59.552Z,61.70
2018-12-29T06:32:59.545Z,60.40
2018-12-29T06:33:59.531Z,59.90
2018-12-29T06:34:59.521Z,60.50
2018-12-29T06:35:59.517Z,57.40
2018-12-29T06:36:59.501Z,59.30
2018-12-29T06:37:59.488Z,62.30
2018-12-29T06:38:59.477Z,62.80
2018-12-29T06:39:59.466Z,62.30
2018-12-29T06:40:59.471Z,56.70
2018-12-29T06:41:59.446Z,65.50
2018-12-29T06:42:59.437Z,66.70
2018-12-29T06:43:59.424Z,63.50
2018-12-29T06:44:59.413Z,59.40
2018-12-29T06:45:59.412Z,66.60
2018-12-29T06:46:59.391Z,64.40
2018-12-29T06:47:59.384Z,61.80
2018-12-29T06:48:59.371Z,64.00
2018-12-29T06:49:59.360Z,68.20
2018-12-29T06:50:59.358Z,67.40
2018-12-29T06:51:59.338Z,69.20
2018-12-29T06:52:59.331Z,64.90
2018-12-29T06:53:59.317Z,61.90
2018-12-29T06:54:59.309Z,64.60
2018-12-29T06:55:59.305Z,65.00
2018-12-29T06:56:59.285Z,60.60
2018-12-29T06:57:59.277Z,61.50
2018-12-29T06:58:59.265Z,62.10
2018-12-29T06:59:59.254Z,58.90
2018-12-29T07:00:59.270Z,67.30
2018-12-29T07:01:59.232Z,59.80
2018-12-29T07:02:59.223Z,62.10
2018-12-29T07:03:59.216Z,65.10
2018-12-29T07:04:59.200Z,61.50
2018-12-29T07:05:59.191Z,57.80
2018-12-29T07:06:59.187Z,57.60
2018-12-29T07:07:59.170Z,63.70
2018-12-29T07:08:59.158Z,63.40
2018-12-29T07:09:59.147Z,67.00
2018-12-29T07:10:59.136Z,59.40
2018-12-29T07:11:59.135Z,58.60
2018-12-29T07:12:59.116Z,61.00
2018-12-29T07:13:59.104Z,64.30
2018-12-29T07:14:59.093Z,55.10
2018-12-29T07:15:59.083Z,61.30
2018-12-29T07:16:59.081Z,61.70
2018-12-29T07:17:59.064Z,67.10
2018-12-29T07:18:59.071Z,59.80
2018-12-29T07:19:59.040Z,58.40
2018-12-29T07:20:59.029Z,59.90
2018-12-29T07:21:59.033Z,58.10
2018-12-29T07:22:59.008Z,54.40
2018-12-29T07:23:59.000Z,59.70
2018-12-29T07:24:58.987Z,57.40
2018-12-29T07:25:59.047Z,55.60
2018-12-29T07:26:58.974Z,57.60
2018-12-29T07:27:58.955Z,60.90
2018-12-29T07:28:58.944Z,63.70
2018-12-29T07:29:58.933Z,54.90
2018-12-29T07:30:58.923Z,53.90
2018-12-29T07:31:58.919Z,55.00
2018-12-29T07:32:58.961Z,54.80
2018-12-29T07:33:58.893Z,52.60
2018-12-29T07:34:58.880Z,56.30
2018-12-29T07:35:58.870Z,55.80
2018-12-29T07:36:58.890Z,54.60
2018-12-29T07:37:58.849Z,60.20
2018-12-29T07:38:58.842Z,56.70
2018-12-29T07:39:58.825Z,55.70
2018-12-29T07:40:58.816Z,56.10
2018-12-29T07:41:58.812Z,54.70
2018-12-29T07:42:58.806Z,52.20
2018-12-29T07:43:58.782Z,56.90
2018-12-29T07:44:58.773Z,55.10
2018-12-29T07:45:58.761Z,53.90
2018-12-29T07:46:58.750Z,54.90
2018-12-29T07:47:58.751Z,53.80
2018-12-29T07:48:58.729Z,53.10
2018-12-29T07:49:58.718Z,56.30
2018-12-29T07:50:58.709Z,55.30
2018-12-29T07:51:58.711Z,58.90
2018-12-29T07:52:58.696Z,55.90
2018-12-29T07:53:58.680Z,52.60
2018-12-29T07:54:58.669Z,56.40
2018-12-29T07:55:58.654Z,56.80
2018-12-29T07:56:58.645Z,54.60
2018-12-29T07:57:58.641Z,52.60
2018-12-29T07:58:58.626Z,52.60
2018-12-29T07:59:59.045Z,52.40
2018-12-29T08:00:58.601Z,55.00
2018-12-29T08:01:58.593Z,61.10
2018-12-29T08:02:58.590Z,60.30
2018-12-29T08:03:58.573Z,50.60
2018-12-29T08:04:58.558Z,51.50
2018-12-29T08:05:58.548Z,52.50
2018-12-29T08:06:58.540Z,52.80
2018-12-29T08:07:58.538Z,52.90
2018-12-29T08:08:58.518Z,53.30
2018-12-29T08:09:58.507Z,55.40
2018-12-29T08:10:58.495Z,54.60
2018-12-29T08:11:58.484Z,55.20
2018-12-29T08:12:58.665Z,53.20
2018-12-29T08:13:58.467Z,59.10
2018-12-29T08:14:58.455Z,54.00
2018-12-29T08:15:58.440Z,57.00
2018-12-29T08:16:58.430Z,61.70
2018-12-29T08:17:58.421Z,67.20
2018-12-29T08:18:58.417Z,65.30
2018-12-29T08:19:58.397Z,71.30
2018-12-29T08:20:58.387Z,68.60
2018-12-29T08:21:58.381Z,66.30
2018-12-29T08:22:58.366Z,64.80
2018-12-29T08:23:58.363Z,68.30
2018-12-29T08:24:58.344Z,73.50
2018-12-29T08:25:58.337Z,56.80
2018-12-29T08:26:58.326Z,71.60
2018-12-29T08:27:58.313Z,70.60
2018-12-29T08:28:58.310Z,61.00
2018-12-29T08:29:58.292Z,59.10
2018-12-29T08:30:58.281Z,53.40
2018-12-29T08:31:58.270Z,56.80
2018-12-29T08:32:58.259Z,61.90
2018-12-29T08:33:58.259Z,59.30
2018-12-29T08:34:58.238Z,59.90
2018-12-29T08:35:58.227Z,57.40
2018-12-29T08:36:58.217Z,55.30
2018-12-29T08:37:58.206Z,60.50
2018-12-29T08:38:58.204Z,61.10
2018-12-29T08:39:58.185Z,61.20
2018-12-29T08:40:58.174Z,60.50
2018-12-29T08:41:58.164Z,64.10
2018-12-29T08:42:58.158Z,64.10
2018-12-29T08:43:58.168Z,57.70
2018-12-29T08:44:58.131Z,58.50
2018-12-29T08:45:58.125Z,55.80
2018-12-29T08:47:04.283Z,56.80
2018-12-29T08:47:59.101Z,59.00
2018-12-29T08:48:58.095Z,59.90
2018-12-29T08:49:58.088Z,63.00
2018-12-29T08:50:58.066Z,66.30
2018-12-29T08:51:58.056Z,57.90
2018-12-29T08:52:58.047Z,61.30
2018-12-29T08:53:58.040Z,66.00
2018-12-29T08:54:58.033Z,61.00
2018-12-29T08:55:58.017Z,61.60
2018-12-29T08:56:58.002Z,74.10
2018-12-29T08:57:57.992Z,67.70
2018-12-29T08:58:57.981Z,71.20
2018-12-29T08:59:57.981Z,76.00
2018-12-29T09:00:58.036Z,61.50
2018-12-29T09:01:57.952Z,61.40
2018-12-29T09:02:57.940Z,62.80
2018-12-29T09:03:57.928Z,59.40
2018-12-29T09:04:57.944Z,62.50
2018-12-29T09:05:57.906Z,63.80
2018-12-29T09:06:57.894Z,68.30
2018-12-29T09:07:57.888Z,67.50
2018-12-29T09:08:57.876Z,70.60
2018-12-29T09:09:57.864Z,80.60
2018-12-29T09:10:57.863Z,72.70
2018-12-29T09:11:57.842Z,64.80
2018-12-29T09:12:57.831Z,69.20
2018-12-29T09:13:57.894Z,67.00
2018-12-29T09:14:57.810Z,68.10
2018-12-29T09:15:57.809Z,77.40
2018-12-29T09:16:57.787Z,78.40
2018-12-29T09:17:57.781Z,69.10
2018-12-29T09:18:57.770Z,65.20
2018-12-29T09:19:57.756Z,69.80
2018-12-29T09:20:57.754Z,69.80
2018-12-29T09:21:57.734Z,74.20
2018-12-29T09:22:57.726Z,73.50
2018-12-29T09:23:57.719Z,66.70
2018-12-29T09:24:57.704Z,64.70
2018-12-29T09:25:57.700Z,65.00
2018-12-29T09:26:57.682Z,71.90
2018-12-29T09:27:57.673Z,70.70
2018-12-29T09:28:57.660Z,60.90
2018-12-29T09:29:57.649Z,65.00
2018-12-29T09:30:57.649Z,67.90
2018-12-29T09:31:57.627Z,65.10
2018-12-29T09:32:57.620Z,61.50
2018-12-29T09:33:57.606Z,66.40
2018-12-29T09:34:57.595Z,61.60
2018-12-29T09:35:57.887Z,61.50
2018-12-29T09:36:57.573Z,68.90
2018-12-29T09:37:57.615Z,59.00
2018-12-29T09:38:57.560Z,70.00
2018-12-29T09:39:57.541Z,62.60
2018-12-29T09:40:57.530Z,59.30
2018-12-29T09:41:57.529Z,60.50
2018-12-29T09:42:57.510Z,54.20
2018-12-29T09:43:57.500Z,51.30
2018-12-29T09:44:57.487Z,54.60
2018-12-29T09:45:57.477Z,57.80
2018-12-29T09:46:57.474Z,60.20
2018-12-29T09:47:57.454Z,53.40
2018-12-29T09:48:57.449Z,60.70
2018-12-29T09:49:57.434Z,54.90
2018-12-29T09:50:57.423Z,51.40
2018-12-29T09:51:57.422Z,53.80
2018-12-29T09:52:57.408Z,52.20
2018-12-29T09:53:57.393Z,49.50
2018-12-29T09:54:57.386Z,44.90
2018-12-29T09:55:57.425Z,45.50
2018-12-29T09:56:57.369Z,44.40
2018-12-29T09:57:57.353Z,39.50
2018-12-29T09:58:57.336Z,44.40
2018-12-29T09:59:57.326Z,45.70
2018-12-29T10:00:57.316Z,47.00
2018-12-29T10:01:57.314Z,43.20
2018-12-29T10:02:57.299Z,51.40
2018-12-29T10:03:57.286Z,44.70
2018-12-29T10:04:57.273Z,48.10
2018-12-29T10:05:57.262Z,42.10
2018-12-29T10:06:57.262Z,51.70
2018-12-29T10:07:57.240Z,48.00
2018-12-29T10:08:57.232Z,45.00
2018-12-29T10:09:57.221Z,58.90
2018-12-29T10:10:57.208Z,55.70
2018-12-29T10:11:57.391Z,52.80
2018-12-29T10:12:57.187Z,64.70
2018-12-29T10:13:57.176Z,60.10
2018-12-29T10:14:57.166Z,54.40
2018-12-29T10:15:57.155Z,57.40
2018-12-29T10:16:57.145Z,49.60
2018-12-29T10:17:57.141Z,50.30
2018-12-29T10:18:57.124Z,57.30
2018-12-29T10:19:57.112Z,55.60
2018-12-29T10:20:57.101Z,66.10
2018-12-29T10:21:57.093Z,66.00
2018-12-29T10:22:57.088Z,56.40
2018-12-29T10:23:57.085Z,68.90
2018-12-29T10:24:57.058Z,61.20
2018-12-29T10:25:57.048Z,68.10
2018-12-29T10:26:57.038Z,56.30
2018-12-29T10:27:57.035Z,57.20
2018-12-29T10:28:57.017Z,66.40
2018-12-29T10:29:57.005Z,53.40
2018-12-29T10:30:56.995Z,61.60
2018-12-29T10:31:56.987Z,73.70
2018-12-29T10:32:56.981Z,62.10
2018-12-29T10:33:56.962Z,64.80
2018-12-29T10:34:56.950Z,66.70
2018-12-29T10:35:56.944Z,57.20
2018-12-29T10:36:56.929Z,54.70
2018-12-29T10:37:56.927Z,57.80
2018-12-29T10:38:56.907Z,57.30
2018-12-29T10:39:56.896Z,56.20
2018-12-29T10:40:56.885Z,52.50
2018-12-29T10:41:56.875Z,64.60
2018-12-29T10:42:56.873Z,63.90
2018-12-29T10:43:56.856Z,54.40
2018-12-29T10:44:56.845Z,60.00
2018-12-29T10:45:56.831Z,58.40
2018-12-29T10:46:56.820Z,58.50
2018-12-29T10:47:56.835Z,57.80
2018-12-29T10:48:56.799Z,55.80
2018-12-29T10:49:56.825Z,54.50
2018-12-29T10:50:56.779Z,58.10
2018-12-29T10:51:56.770Z,60.50
2018-12-29T10:52:56.756Z,56.80
2018-12-29T10:53:56.753Z,57.10
2018-12-29T10:54:56.734Z,55.60
2018-12-29T10:55:56.726Z,66.00
2018-12-29T10:56:56.712Z,58.20
2018-12-29T10:57:56.702Z,57.90
2018-12-29T10:58:56.700Z,58.50
2018-12-29T10:59:56.680Z,58.70
2018-12-29T11:00:56.673Z,62.10
2018-12-29T11:01:56.660Z,61.50
2018-12-29T11:02:56.648Z,60.30
2018-12-29T11:03:56.646Z,60.80
2018-12-29T11:04:56.627Z,67.80
2018-12-29T11:05:56.616Z,61.20
2018-12-29T11:06:56.607Z,66.90
2018-12-29T11:07:56.594Z,65.90
2018-12-29T11:08:56.595Z,69.70
2018-12-29T11:09:56.573Z,70.90
2018-12-29T11:10:56.562Z,62.80
2018-12-29T11:11:56.552Z,64.70
2018-12-29T11:12:56.541Z,61.60
2018-12-29T11:13:56.542Z,68.80
2018-12-29T11:14:56.520Z,62.80
2018-12-29T11:15:56.510Z,63.30
2018-12-29T11:16:56.499Z,63.50
2018-12-29T11:17:56.490Z,58.50
2018-12-29T11:18:56.491Z,64.00
2018-12-29T11:19:56.474Z,72.40
2018-12-29T11:20:56.455Z,62.00
2018-12-29T11:21:56.445Z,60.60
2018-12-29T11:22:56.434Z,67.10
2018-12-29T11:23:56.448Z,56.30
2018-12-29T11:24:56.413Z,63.30
2018-12-29T11:25:56.406Z,66.30
2018-12-29T11:26:56.392Z,73.70
2018-12-29T11:27:56.380Z,65.50
2018-12-29T11:28:56.368Z,58.20
2018-12-29T11:29:56.369Z,55.90
2018-12-29T11:30:56.346Z,68.00
2018-12-29T11:31:56.385Z,56.60
2018-12-29T11:32:56.327Z,57.70
2018-12-29T11:33:56.313Z,55.60
2018-12-29T11:34:56.312Z,49.60
2018-12-29T11:35:56.776Z,57.10
2018-12-29T11:36:56.281Z,52.70
2018-12-29T11:37:56.269Z,55.60
2018-12-29T11:38:56.260Z,53.50
2018-12-29T11:39:56.258Z,59.50
2018-12-29T11:40:56.237Z,56.20
2018-12-29T11:41:56.227Z,54.80
2018-12-29T11:42:56.216Z,57.20
2018-12-29T11:43:56.205Z,51.00
2018-12-29T11:44:56.207Z,58.30
2018-12-29T11:45:56.183Z,60.50
2018-12-29T11:46:56.173Z,56.30
2018-12-29T11:47:56.161Z,61.70
2018-12-29T11:48:56.154Z,53.30
2018-12-29T11:49:56.191Z,57.90
2018-12-29T11:50:56.129Z,55.20
2018-12-29T11:51:56.120Z,53.70
2018-12-29T11:52:56.107Z,48.50
2018-12-29T11:53:56.100Z,49.50
2018-12-29T11:54:56.086Z,52.80
2018-12-29T11:55:56.084Z,52.90
2018-12-29T11:56:56.065Z,47.00
2018-12-29T11:57:56.053Z,52.90
2018-12-29T11:58:56.042Z,50.90
2018-12-29T11:59:56.029Z,51.40
2018-12-29T12:00:56.032Z,49.70
2018-12-29T12:01:56.011Z,53.90
2018-12-29T12:02:55.997Z,49.10
2018-12-29T12:03:55.986Z,48.50
2018-12-29T12:04:55.977Z,55.60
2018-12-29T12:05:56.054Z,46.40
2018-12-29T12:06:55.957Z,42.10
2018-12-29T12:07:55.943Z,45.30
2018-12-29T12:08:55.932Z,47.30
2018-12-29T12:09:55.921Z,48.80
2018-12-29T12:10:55.919Z,49.70
2018-12-29T12:11:55.902Z,49.60
2018-12-29T12:12:55.888Z,57.70
2018-12-29T12:13:55.932Z,45.40
2018-12-29T12:14:55.868Z,48.80
2018-12-29T12:15:55.865Z,42.60
2018-12-29T12:16:55.854Z,45.90
2018-12-29T12:17:57.513Z,46.40
2018-12-29T12:18:55.822Z,44.50
2018-12-29T12:19:55.816Z,42.20
2018-12-29T12:20:55.826Z,47.20
2018-12-29T12:21:55.794Z,45.00
2018-12-29T12:22:55.780Z,42.70
2018-12-29T12:23:55.767Z,44.00
2018-12-29T12:24:55.761Z,48.80
2018-12-29T12:25:55.751Z,47.50
2018-12-29T12:26:55.746Z,44.80
2018-12-29T12:27:55.729Z,46.80
2018-12-29T12:28:55.713Z,45.80
2018-12-29T12:29:55.703Z,47.10
2018-12-29T12:30:55.693Z,46.10
2018-12-29T12:31:55.691Z,44.30
2018-12-29T12:32:55.748Z,43.30
2018-12-29T12:33:55.721Z,46.10
2018-12-29T12:34:55.650Z,49.60
2018-12-29T12:35:55.637Z,45.60
2018-12-29T12:36:55.638Z,40.60
2018-12-29T12:37:55.621Z,42.40
2018-12-29T12:38:55.607Z,44.50
2018-12-29T12:39:55.597Z,44.40
2018-12-29T12:40:55.582Z,45.40
2018-12-29T12:41:55.582Z,45.10
2018-12-29T12:42:55.561Z,46.90
2018-12-29T12:43:55.550Z,44.50
2018-12-29T12:44:55.544Z,39.40
2018-12-29T12:45:55.529Z,42.20
2018-12-29T12:46:55.531Z,37.30
2018-12-29T12:47:55.513Z,39.00
2018-12-29T12:48:55.495Z,41.10
2018-12-29T12:49:55.484Z,41.70
2018-12-29T12:50:55.473Z,40.50
2018-12-29T12:51:55.474Z,41.00